Time;durP1;ratioP1;P1;durP2;ratioP2;P2;SDS_P1;SDS_P2;PMS_P1;PMS_P2;Temp;Humidity;BMP_temperature;BMP_pressure;BME280_temperature;BME280_humidity;BME280_pressure;Samples;Min_cycle;Max_cycle;Signal;HPM_P1;HPM_P2
2022/07/22 00:00:50;;;;;;;8.90;3.90;;;15.70;99.90;;;;;;4817601;29;20161;-87
2022/07/22 00:03:17;;;;;;;6.65;3.25;;;15.70;99.90;;;;;;4800596;29;20072;-87
2022/07/22 00:05:53;;;;;;;;;;;;;;;;;;;;;
2022/07/22 00:08:21;;;;;;;9.30;3.63;;;15.60;99.90;;;;;;4817442;29;20067;-86
2022/07/22 00:10:50;;;;;;;8.52;3.75;;;15.60;99.90;;;;;;4816545;29;20053;-89
2022/07/22 00:13:18;;;;;;;11.57;4.00;;;14.30;99.90;;;;;;4801003;29;20454;-86
2022/07/22 00:15:46;;;;;;;13.23;4.53;;;15.70;99.90;;;;;;4815679;29;20157;-86
2022/07/22 00:18:14;;;;;;;10.40;3.97;;;15.70;99.90;;;;;;4801404;29;20061;-87
2022/07/22 00:20:41;;;;;;;10.45;4.47;;;15.80;99.90;;;;;;4800800;29;20052;-88
2022/07/22 00:23:07;;;;;;;8.35;4.32;;;15.70;99.90;;;;;;4801096;29;20109;-86
2022/07/22 00:25:35;;;;;;;8.10;3.97;;;15.70;99.90;;;;;;4815426;29;20145;-87
2022/07/22 00:28:01;;;;;;;9.73;3.80;;;15.70;99.90;;;;;;4831965;29;20054;-86
2022/07/22 00:30:27;;;;;;;12.32;4.25;;;15.60;99.90;;;;;;4831365;29;20066;-89
2022/07/22 00:32:55;;;;;;;18.27;4.45;;;15.70;99.90;;;;;;4821585;29;20077;-90
2022/07/22 00:35:26;;;;;;;12.73;4.55;;;15.70;99.90;;;;;;4821425;29;20067;-89
2022/07/22 00:38:01;;;;;;;8.88;4.40;;;15.70;99.90;;;;;;4846374;29;20046;-87
2022/07/22 00:40:30;;;;;;;12.32;4.20;;;15.80;99.90;;;;;;4801237;29;20082;-87
2022/07/22 00:42:59;;;;;;;12.35;4.38;;;15.80;99.90;;;;;;4814660;29;20144;-87
2022/07/22 00:45:25;;;;;;;11.77;4.15;;;15.70;99.90;;;;;;4799004;29;20419;-87
2022/07/22 00:47:51;;;;;;;10.20;3.90;;;15.90;99.90;;;;;;4814712;29;20137;-86
2022/07/22 00:50:19;;;;;;;12.50;4.95;;;15.80;99.90;;;;;;4828428;29;20053;-86
2022/07/22 00:52:45;;;;;;;10.20;4.03;;;16.50;99.90;;;;;;4818573;29;20030;-89
2022/07/22 00:55:11;;;;;;;10.40;4.30;;;15.80;99.90;;;;;;4848412;29;20050;-91
2022/07/22 00:57:40;;;;;;;12.35;4.78;;;14.50;99.90;;;;;;4820231;29;20070;-88
2022/07/22 01:00:10;;;;;;;13.45;5.68;;;16.90;99.90;;;;;;4820583;29;20090;-86
2022/07/22 01:02:39;;;;;;;12.93;5.00;;;15.80;99.90;;;;;;4813191;29;20049;-87
2022/07/22 01:05:05;;;;;;;10.85;4.85;;;15.70;99.90;;;;;;4813666;29;20053;-87
2022/07/22 01:07:31;;;;;;;11.13;4.90;;;15.70;99.90;;;;;;4798001;29;20497;-87
2022/07/22 01:09:57;;;;;;;15.73;4.57;;;15.50;99.90;;;;;;4844660;29;20061;-87
2022/07/22 01:12:26;;;;;;;9.88;4.47;;;15.80;99.90;;;;;;4812988;29;20078;-93
2022/07/22 01:14:57;;;;;;;12.40;5.18;;;15.70;99.90;;;;;;4810009;29;20050;-88
2022/07/22 01:17:23;;;;;;;12.38;5.15;;;15.90;99.90;;;;;;4807160;29;20444;-86
2022/07/22 01:19:51;;;;;;;10.93;5.15;;;14.80;99.90;;;;;;4808646;29;20057;-86
2022/07/22 01:22:17;;;;;;;11.85;4.68;;;15.70;99.90;;;;;;4822901;29;20053;-87
2022/07/22 01:24:48;;;;;;;9.50;4.60;;;15.70;99.90;;;;;;4806507;29;20041;-87
2022/07/22 01:27:21;;;;;;;11.82;4.75;;;15.90;99.90;;;;;;4823426;29;20053;-87
2022/07/22 01:29:52;;;;;;;11.20;5.10;;;15.80;99.90;;;;;;4821292;29;20057;-87
2022/07/22 01:32:17;;;;;;;8.20;4.22;;;15.60;99.90;;;;;;4806002;29;20056;-88
2022/07/22 01:34:43;;;;;;;11.23;4.53;;;15.70;99.90;;;;;;4804997;29;20082;-86
2022/07/22 01:37:12;;;;;;;11.48;4.47;;;15.00;99.90;;;;;;4803894;29;20460;-87
2022/07/22 01:39:38;;;;;;;9.13;3.80;;;15.70;99.90;;;;;;4805363;29;20054;-87
2022/07/22 01:42:14;;;;;;;7.57;3.72;;;15.70;99.90;;;;;;4803636;29;20360;-87
2022/07/22 01:44:43;;;;;;;9.55;4.07;;;15.70;99.90;;;;;;4819559;29;20499;-87
2022/07/22 01:47:11;;;;;;;9.65;3.97;;;15.60;99.90;;;;;;4819393;29;20074;-87
2022/07/22 01:49:38;;;;;;;6.95;4.20;;;15.70;99.90;;;;;;4818126;29;20042;-88
2022/07/22 01:52:04;;;;;;;7.68;3.90;;;14.30;99.90;;;;;;4819892;29;20079;-87
2022/07/22 01:54:33;;;;;;;11.30;4.40;;;15.60;99.90;;;;;;4803011;29;20046;-87
2022/07/22 01:56:58;;;;;;;13.25;4.05;;;15.60;99.90;;;;;;4802628;29;20065;-87
2022/07/22 01:59:30;;;;;;;13.32;4.05;;;15.60;99.90;;;;;;4825511;29;20034;-88
2022/07/22 02:01:58;;;;;;;8.73;3.90;;;13.90;99.90;;;;;;4835872;29;20162;-90
2022/07/22 02:04:24;;;;;;;9.77;3.28;;;15.50;99.90;;;;;;4835038;29;20030;-91
2022/07/22 02:06:50;;;;;;;9.02;3.22;;;15.50;99.90;;;;;;4833672;29;20038;-87
2022/07/22 02:09:16;;;;;;;8.30;3.47;;;15.80;99.90;;;;;;4819440;29;20121;-88
2022/07/22 02:11:42;;;;;;;11.45;3.72;;;15.70;99.90;;;;;;4819679;29;20069;-85
2022/07/22 02:14:17;;;;;;;12.27;3.35;;;15.60;99.90;;;;;;4821302;29;20050;-89
2022/07/22 02:16:44;;;;;;;9.95;3.25;;;15.70;99.90;;;;;;4818254;29;20073;-88
2022/07/22 02:19:10;;;;;;;10.52;3.20;;;15.50;99.90;;;;;;4850783;29;20068;-91
2022/07/22 02:21:38;;;;;;;11.75;3.20;;;15.60;99.90;;;;;;4834421;29;20043;-90
2022/07/22 02:24:04;;;;;;;12.52;3.20;;;15.40;99.90;;;;;;4820134;29;20141;-87
2022/07/22 02:26:30;;;;;;;7.43;3.08;;;15.60;99.90;;;;;;4798557;29;20064;-89
2022/07/22 02:28:56;;;;;;;8.95;3.55;;;15.60;99.90;;;;;;4797285;29;20049;-88
2022/07/22 02:31:22;;;;;;;10.57;3.20;;;15.50;99.90;;;;;;4813360;29;20060;-87
2022/07/22 02:33:53;;;;;;;6.68;2.90;;;15.50;99.90;;;;;;4797874;29;20100;-87
2022/07/22 02:36:26;;;;;;;7.10;3.08;;;15.50;99.90;;;;;;4812660;29;20046;-89
2022/07/22 02:38:52;;;;;;;12.43;3.25;;;14.70;99.90;;;;;;4813546;29;20045;-87
2022/07/22 02:41:26;;;;;;;6.57;3.13;;;15.40;99.90;;;;;;4798340;29;20114;-88
2022/07/22 02:43:55;;;;;;;11.98;3.28;;;15.50;99.90;;;;;;4812640;29;20134;-88
2022/07/22 02:46:22;;;;;;;8.10;3.00;;;15.40;99.90;;;;;;4812392;29;20049;-88
2022/07/22 02:48:48;;;;;;;7.28;3.40;;;15.50;99.90;;;;;;4796940;29;20060;-88
2022/07/22 02:51:13;;;;;;;8.45;2.90;;;15.50;99.90;;;;;;4811835;29;20132;-88
2022/07/22 02:53:45;;;;;;;10.13;3.28;;;15.60;99.90;;;;;;4811501;29;20048;-87
2022/07/22 02:56:10;;;;;;;8.00;2.90;;;14.50;99.90;;;;;;4812041;29;20085;-87
2022/07/22 02:58:39;;;;;;;6.68;3.05;;;15.40;99.90;;;;;;4811096;29;20108;-89
2022/07/22 03:01:08;;;;;;;11.25;3.30;;;15.40;99.90;;;;;;4811968;29;20050;-86
2022/07/22 03:03:34;;;;;;;5.72;2.80;;;15.40;99.90;;;;;;4810876;29;20079;-91
2022/07/22 03:06:02;;;;;;;9.10;3.05;;;15.40;99.90;;;;;;4795170;29;20086;-90
2022/07/22 03:08:28;;;;;;;11.20;2.70;;;15.20;99.90;;;;;;4811088;29;20475;-88
2022/07/22 03:10:54;;;;;;;6.78;2.90;;;15.40;99.90;;;;;;4810897;29;20088;-87
2022/07/22 03:13:23;;;;;;;7.32;2.45;;;15.30;99.90;;;;;;4796018;29;20116;-88
2022/07/22 03:16:00;;;;;;;4.15;2.28;;;15.40;99.90;;;;;;4810955;29;20110;-88
2022/07/22 03:18:31;;;;;;;5.57;2.50;;;14.30;99.90;;;;;;4796284;29;20062;-87
2022/07/22 03:21:00;;;;;;;6.10;2.10;;;15.30;99.90;;;;;;4823118;29;20053;-93
2022/07/22 03:23:28;;;;;;;8.30;2.50;;;15.30;99.90;;;;;;4814132;29;20041;-88
2022/07/22 03:25:57;;;;;;;8.27;2.00;;;15.40;99.90;;;;;;4833631;29;20053;-89
2022/07/22 03:28:25;;;;;;;10.93;3.35;;;15.30;99.90;;;;;;4811226;29;20058;-91
2022/07/22 03:30:54;;;;;;;3.97;2.42;;;14.80;99.90;;;;;;4819072;29;20053;-90
2022/07/22 03:33:20;;;;;;;6.88;2.50;;;15.30;99.90;;;;;;4834212;29;20038;-91
2022/07/22 03:35:56;;;;;;;6.25;3.00;;;15.30;99.90;;;;;;4833633;29;20071;-91
2022/07/22 03:38:27;;;;;;;6.55;1.95;;;15.40;99.90;;;;;;4823691;29;20212;-93
2022/07/22 03:41:03;;;;;;;;;;;;;;;;;;;;;
2022/07/22 03:43:31;;;;;;;5.03;2.38;;;14.10;99.90;;;;;;4835495;29;20034;-92
2022/07/22 03:46:02;;;;;;;6.90;2.28;;;15.30;99.90;;;;;;4833324;29;20042;-90
2022/07/22 03:48:36;;;;;;;5.78;2.60;;;15.30;99.90;;;;;;4816644;29;20042;-89
2022/07/22 03:51:04;;;;;;;7.32;2.40;;;16.80;99.90;;;;;;4798542;29;20067;-89
2022/07/22 03:53:32;;;;;;;4.25;1.85;;;15.40;99.90;;;;;;4797477;29;20073;-90
2022/07/22 03:56:04;;;;;;;5.22;2.10;;;15.30;99.90;;;;;;4797079;29;20048;-89
2022/07/22 03:58:47;;;;;;;7.93;3.72;;;15.40;99.90;;;;;;4813936;29;20190;-89
2022/07/22 04:01:16;;;;;;;6.72;2.38;;;13.80;99.90;;;;;;4812701;29;20137;-90
2022/07/22 04:03:44;;;;;;;6.07;2.55;;;14.70;99.90;;;;;;4811217;29;20085;-90
2022/07/22 04:06:18;;;;;;;5.57;2.38;;;15.40;99.90;;;;;;4796718;29;20054;-89
2022/07/22 04:08:44;;;;;;;6.85;1.80;;;15.30;99.90;;;;;;4797964;29;20057;-90
2022/07/22 04:11:13;;;;;;;15.95;3.00;;;15.30;99.90;;;;;;4796375;29;20432;-90
2022/07/22 04:13:45;;;;;;;8.32;2.10;;;15.30;99.90;;;;;;4796710;29;20050;-88
2022/07/22 04:16:11;;;;;;;6.38;2.20;;;15.50;99.90;;;;;;4812104;29;20052;-89
2022/07/22 04:18:37;;;;;;;8.55;2.75;;;15.30;99.90;;;;;;4799247;29;20054;-88
2022/07/22 04:21:05;;;;;;;5.00;2.05;;;15.30;99.90;;;;;;4798531;29;20065;-89
2022/07/22 04:23:31;;;;;;;4.88;1.98;;;15.60;99.90;;;;;;4800114;29;20050;-88
2022/07/22 04:26:00;;;;;;;3.13;2.00;;;15.40;99.90;;;;;;4814982;29;20049;-91
2022/07/22 04:28:26;;;;;;;5.10;2.10;;;15.30;99.90;;;;;;4799227;29;20042;-90
2022/07/22 04:30:52;;;;;;;3.88;2.42;;;14.90;99.90;;;;;;4798616;29;20041;-90
2022/07/22 04:33:34;;;;;;;6.20;2.05;;;14.00;99.90;;;;;;4813315;29;20052;-90
2022/07/22 04:36:10;;;;;;;4.28;2.20;;;15.40;99.90;;;;;;4797748;29;20209;-89
2022/07/22 04:38:44;;;;;;;7.18;2.10;;;15.40;99.90;;;;;;4785251;29;20495;-89
2022/07/22 04:41:10;;;;;;;7.13;2.03;;;15.90;99.90;;;;;;4826611;29;20125;-88
2022/07/22 04:43:38;;;;;;;5.78;2.10;;;15.40;99.90;;;;;;4813725;29;20421;-90
2022/07/22 04:46:05;;;;;;;5.57;2.35;;;15.40;99.90;;;;;;4813199;29;20050;-89
2022/07/22 04:48:36;;;;;;;4.65;1.95;;;15.40;99.90;;;;;;4813688;29;20046;-90
2022/07/22 04:51:02;;;;;;;4.53;2.15;;;15.40;99.90;;;;;;4814095;29;20037;-90
2022/07/22 04:53:33;;;;;;;3.83;2.03;;;16.10;99.90;;;;;;4798606;29;20050;-90
2022/07/22 04:56:01;;;;;;;8.52;2.40;;;15.40;99.90;;;;;;4821900;29;20053;-91
2022/07/22 04:58:40;;;;;;;6.20;2.00;;;15.20;99.90;;;;;;4820525;29;20042;-90
2022/07/22 05:01:08;;;;;;;6.28;2.00;;;16.00;99.90;;;;;;4821839;29;20038;-91
2022/07/22 05:03:36;;;;;;;5.03;2.35;;;15.40;99.90;;;;;;4821232;29;20068;-91
2022/07/22 05:06:10;;;;;;;3.67;2.13;;;15.70;99.90;;;;;;4832282;29;20057;-92
2022/07/22 05:08:36;;;;;;;3.72;1.80;;;15.60;99.90;;;;;;4835530;29;20050;-90
2022/07/22 05:11:02;;;;;;;4.60;2.20;;;15.60;99.90;;;;;;4809009;29;20050;-91
2022/07/22 05:13:35;;;;;;;4.38;2.00;;;15.70;99.90;;;;;;4813258;29;20046;-92
2022/07/22 05:16:14;;;;;;;5.47;2.00;;;15.20;99.90;;;;;;4820555;29;20612;-91
2022/07/22 05:18:43;;;;;;;5.30;2.15;;;14.80;99.90;;;;;;4804087;29;20374;-89
2022/07/22 05:21:14;;;;;;;8.48;2.50;;;15.80;99.90;;;;;;4798664;29;20049;-90
2022/07/22 05:23:42;;;;;;;5.22;2.70;;;15.60;99.90;;;;;;4806632;29;20101;-90
2022/07/22 05:26:19;;;;;;;7.68;2.28;;;14.20;99.90;;;;;;4818926;29;20068;-92
2022/07/22 05:28:50;;;;;;;5.47;2.30;;;15.70;99.90;;;;;;4812728;29;20494;-91
2022/07/22 05:31:25;;;;;;;5.03;2.20;;;15.70;99.90;;;;;;4835632;29;20046;-93
2022/07/22 05:34:07;;;;;;;7.30;2.05;;;17.10;99.90;;;;;;4827673;29;20050;-91
2022/07/22 05:36:36;;;;;;;5.32;1.95;;;15.90;99.90;;;;;;4813428;29;20106;-91
2022/07/22 05:39:07;;;;;;;6.03;2.08;;;16.00;99.90;;;;;;4811347;29;20114;-92
2022/07/22 05:41:40;;;;;;;4.82;2.13;;;15.90;99.90;;;;;;4818496;29;20050;-90
2022/07/22 05:44:16;;;;;;;7.25;2.25;;;15.30;99.90;;;;;;4815815;29;20052;-91
2022/07/22 05:46:52;;;;;;;;;;;;;;;;;;;;;
2022/07/22 05:49:21;;;;;;;4.38;2.00;;;16.00;99.90;;;;;;4831593;29;20081;-91
2022/07/22 05:51:59;;;;;;;;;;;;;;;;;;;;;
2022/07/22 05:54:31;;;;;;;4.00;1.60;;;16.00;99.90;;;;;;4824566;29;20078;-90
2022/07/22 05:57:12;;;;;;;3.45;1.77;;;16.00;99.90;;;;;;4819747;29;20078;-91
2022/07/22 05:59:45;;;;;;;2.90;2.22;;;16.00;99.90;;;;;;4822147;29;20117;-90
2022/07/22 06:02:11;;;;;;;6.13;2.10;;;16.40;99.90;;;;;;4806719;29;20046;-89
2022/07/22 06:05:00;;;;;;;4.22;1.95;;;16.10;99.90;;;;;;4806587;29;20049;-91
2022/07/22 06:07:37;;;;;;;5.82;1.90;;;15.10;99.90;;;;;;4821672;29;20514;-90
2022/07/22 06:10:08;;;;;;;6.78;2.10;;;17.10;99.90;;;;;;4802398;29;20081;-91
2022/07/22 06:12:46;;;;;;;4.60;1.70;;;16.30;99.90;;;;;;4802250;29;20636;-91
2022/07/22 06:15:25;;;;;;;6.55;1.70;;;16.40;99.90;;;;;;4819065;29;20323;-91
2022/07/22 06:18:07;;;;;;;5.68;1.92;;;16.00;99.90;;;;;;4803273;29;20044;-94
2022/07/22 06:20:44;;;;;;;7.15;1.90;;;16.40;99.90;;;;;;4819213;29;20451;-93
2022/07/22 06:23:10;;;;;;;3.72;1.65;;;16.50;99.90;;;;;;4804753;29;20083;-92
2022/07/22 06:25:37;;;;;;;5.72;1.98;;;16.40;99.90;;;;;;4833845;29;20046;-92
2022/07/22 06:28:08;;;;;;;2.90;1.77;;;16.10;99.90;;;;;;4819634;29;20030;-92
2022/07/22 06:30:39;;;;;;;10.77;2.30;;;16.50;99.90;;;;;;4835158;29;20057;-92
2022/07/22 06:33:13;;;;;;;6.70;1.55;;;16.60;99.90;;;;;;4834892;29;20026;-93
2022/07/22 06:35:41;;;;;;;5.43;1.77;;;16.00;99.90;;;;;;4820620;29;20054;-92
2022/07/22 06:38:09;;;;;;;4.97;1.48;;;15.60;99.90;;;;;;4818601;29;20042;-91
2022/07/22 06:40:35;;;;;;;6.05;2.08;;;16.80;99.90;;;;;;4800759;29;20053;-91
2022/07/22 06:43:17;;;;;;;3.22;1.55;;;17.10;99.90;;;;;;4816943;29;20061;-91
2022/07/22 06:45:57;;;;;;;4.05;1.80;;;16.00;99.90;;;;;;4816266;29;20056;-91
2022/07/22 06:48:28;;;;;;;4.60;2.38;;;15.90;99.90;;;;;;4812539;29;20057;-91
2022/07/22 06:50:54;;;;;;;7.07;1.95;;;17.00;99.90;;;;;;4814701;29;20050;-90
2022/07/22 06:53:24;;;;;;;3.90;1.73;;;17.00;99.90;;;;;;4799735;29;20109;-92
2022/07/22 06:55:55;;;;;;;2.60;1.48;;;17.00;99.90;;;;;;4814234;29;20087;-92
2022/07/22 06:58:23;;;;;;;7.15;1.80;;;17.90;99.90;;;;;;4813266;29;20069;-92
2022/07/22 07:00:50;;;;;;;2.72;1.50;;;17.20;99.90;;;;;;4799495;29;20056;-92
2022/07/22 07:03:18;;;;;;;3.08;1.40;;;17.10;99.90;;;;;;4814370;29;20045;-89
2022/07/22 07:06:15;;;;;;;3.72;1.45;;;17.20;99.90;;;;;;4812725;29;20093;-91
2022/07/22 07:08:44;;;;;;;4.50;1.77;;;16.30;99.90;;;;;;4788894;29;20054;-90
2022/07/22 07:11:13;;;;;;;4.82;1.52;;;18.00;99.90;;;;;;4798869;29;20085;-90
2022/07/22 07:13:45;;;;;;;4.38;1.63;;;17.50;99.90;;;;;;4797713;29;20077;-92
2022/07/22 07:16:19;;;;;;;2.95;1.52;;;17.60;99.90;;;;;;4796370;29;20380;-92
2022/07/22 07:18:47;;;;;;;5.63;1.70;;;17.60;99.90;;;;;;4797234;29;20050;-92
2022/07/22 07:21:16;;;;;;;5.18;1.70;;;17.80;99.90;;;;;;4812172;29;20065;-91
2022/07/22 07:23:52;;;;;;;5.20;1.70;;;18.30;99.90;;;;;;4797731;29;20079;-92
2022/07/22 07:26:37;;;;;;;;;;;;;;;;;;;;;
2022/07/22 07:29:06;;;;;;;3.17;1.50;;;17.70;99.90;;;;;;4814656;29;20065;-88
2022/07/22 07:31:39;;;;;;;4.07;1.60;;;17.80;99.90;;;;;;4812490;29;20052;-91
2022/07/22 07:34:05;;;;;;;5.97;1.50;;;17.80;99.90;;;;;;4812272;29;20513;-91
2022/07/22 07:37:02;;;;;;;5.50;1.80;;;17.80;99.90;;;;;;4800604;29;20050;-95
2022/07/22 07:39:36;;;;;;;2.25;1.67;;;18.80;99.90;;;;;;4814259;29;20038;-93
2022/07/22 07:42:02;;;;;;;4.13;1.75;;;18.10;99.90;;;;;;4825834;29;20065;-83
2022/07/22 07:44:28;;;;;;;3.67;1.80;;;18.20;99.90;;;;;;4825956;29;20501;-83
2022/07/22 07:46:53;;;;;;;3.00;1.10;;;18.20;99.90;;;;;;4825046;29;20042;-82
2022/07/22 07:49:19;;;;;;;3.28;1.40;;;18.20;99.90;;;;;;4839814;29;20042;-83
2022/07/22 07:51:45;;;;;;;10.00;1.77;;;18.20;99.90;;;;;;4841797;29;20046;-83
2022/07/22 07:54:13;;;;;;;3.47;1.40;;;18.30;99.90;;;;;;4861006;29;20038;-84
2022/07/22 07:56:39;;;;;;;1.73;1.17;;;18.30;99.90;;;;;;4867014;29;20041;-82
2022/07/22 07:59:05;;;;;;;5.20;2.05;;;18.30;99.90;;;;;;4863466;29;20112;-82
2022/07/22 08:01:30;;;;;;;2.70;1.35;;;18.20;99.90;;;;;;4838822;29;20057;-83
2022/07/22 08:03:56;;;;;;;6.38;1.42;;;18.20;99.90;;;;;;4828721;29;20517;-81
2022/07/22 08:06:22;;;;;;;4.60;1.30;;;18.10;99.90;;;;;;4827212;29;20064;-81
2022/07/22 08:08:48;;;;;;;3.65;1.70;;;18.00;99.90;;;;;;4827013;29;20046;-82
2022/07/22 08:11:14;;;;;;;4.97;1.50;;;18.20;99.90;;;;;;4842665;29;20136;-82
2022/07/22 08:13:39;;;;;;;4.60;1.20;;;18.30;99.90;;;;;;4812128;29;20183;-82
2022/07/22 08:16:05;;;;;;;5.72;1.60;;;18.30;99.90;;;;;;4827052;29;20045;-81
2022/07/22 08:18:31;;;;;;;5.20;1.67;;;18.30;99.90;;;;;;4826819;29;20547;-82
2022/07/22 08:20:56;;;;;;;4.30;1.20;;;18.20;99.90;;;;;;4827537;29;20109;-83
2022/07/22 08:23:22;;;;;;;3.72;1.38;;;18.30;99.90;;;;;;4843648;29;20729;-82
2022/07/22 08:25:48;;;;;;;3.65;1.50;;;18.30;99.90;;;;;;4826502;29;20065;-83
2022/07/22 08:28:13;;;;;;;4.10;1.58;;;18.20;99.90;;;;;;4826006;29;20057;-85
2022/07/22 08:30:40;;;;;;;4.22;1.40;;;18.10;99.90;;;;;;4843078;29;20064;-82
2022/07/22 08:33:06;;;;;;;3.17;1.40;;;18.20;99.90;;;;;;4843266;29;20046;-82
2022/07/22 08:35:32;;;;;;;4.43;1.48;;;18.30;99.90;;;;;;4842642;29;20379;-83
2022/07/22 08:37:57;;;;;;;4.75;1.40;;;18.20;99.90;;;;;;4811475;29;20046;-83
2022/07/22 08:40:23;;;;;;;6.30;1.30;;;18.20;99.90;;;;;;4826094;29;20106;-82
2022/07/22 08:42:49;;;;;;;2.53;1.30;;;18.10;99.90;;;;;;4826593;29;20084;-83
2022/07/22 08:45:15;;;;;;;4.53;1.45;;;18.00;99.90;;;;;;4811948;29;20045;-84
2022/07/22 08:47:43;;;;;;;4.18;1.38;;;17.90;99.90;;;;;;4845029;29;20045;-84
2022/07/22 08:50:08;;;;;;;10.48;2.22;;;17.90;99.90;;;;;;4812842;29;20054;-84
2022/07/22 08:52:35;;;;;;;3.40;1.27;;;18.00;99.90;;;;;;4843908;29;20058;-83
2022/07/22 08:55:08;;;;;;;2.22;1.20;;;18.00;99.90;;;;;;4827524;29;20046;-82
2022/07/22 08:57:35;;;;;;;3.45;1.20;;;18.00;99.90;;;;;;4826634;29;20502;-83
2022/07/22 09:00:01;;;;;;;3.72;1.77;;;18.00;99.90;;;;;;4826770;29;20045;-81
2022/07/22 09:02:26;;;;;;;5.90;1.38;;;18.00;99.90;;;;;;4842950;29;20048;-81
2022/07/22 09:04:56;;;;;;;6.65;1.63;;;18.00;99.90;;;;;;4827066;29;20436;-82
2022/07/22 09:07:26;;;;;;;3.45;1.30;;;18.00;99.90;;;;;;4826553;29;20057;-84
2022/07/22 09:09:52;;;;;;;3.90;1.50;;;18.00;99.90;;;;;;4826715;29;20081;-82
2022/07/22 09:12:18;;;;;;;2.80;1.40;;;18.00;99.90;;;;;;4843653;29;20471;-82
2022/07/22 09:14:48;;;;;;;5.63;1.67;;;18.00;99.90;;;;;;4843206;29;20058;-83
2022/07/22 09:17:30;;;;;;;5.38;1.58;;;17.90;99.90;;;;;;4860377;29;20101;-84
2022/07/22 09:19:58;;;;;;;3.63;1.30;;;18.10;99.90;;;;;;4834837;29;20064;-84
2022/07/22 09:22:53;;;;;;;4.38;1.60;;;18.20;99.90;;;;;;4850312;29;20057;-85
2022/07/22 09:25:45;;;;;;;3.90;1.48;;;18.20;99.90;;;;;;4860931;29;20075;-85
2022/07/22 09:28:13;;;;;;;8.55;1.63;;;18.20;99.90;;;;;;4854422;29;20083;-81
2022/07/22 09:30:52;;;;;;;7.15;1.23;;;18.10;99.90;;;;;;4827831;29;20042;-82
2022/07/22 09:33:18;;;;;;;4.78;1.58;;;18.30;99.90;;;;;;4826945;29;20061;-80
2022/07/22 09:35:44;;;;;;;6.85;2.05;;;18.50;99.90;;;;;;4794632;29;20398;-80
2022/07/22 09:38:11;;;;;;;3.67;1.10;;;18.50;99.90;;;;;;4811050;29;20053;-79
2022/07/22 09:40:42;;;;;;;5.90;1.48;;;18.60;99.90;;;;;;4825003;29;20477;-79
2022/07/22 09:43:12;;;;;;;3.72;1.20;;;18.70;99.90;;;;;;4825695;29;20098;-81
2022/07/22 09:45:48;;;;;;;;;;;18.80;99.90;;;;;;4825666;29;20110;-82
2022/07/22 09:48:14;;;;;;;3.33;1.20;;;18.70;99.90;;;;;;4826708;29;19931;-80
2022/07/22 09:50:40;;;;;;;4.05;1.40;;;18.50;99.90;;;;;;4827044;29;20077;-81
2022/07/22 09:53:05;;;;;;;3.78;1.25;;;18.60;99.90;;;;;;4826956;29;20085;-80
2022/07/22 09:55:33;;;;;;;4.70;1.60;;;18.80;99.90;;;;;;4826028;29;20168;-79
2022/07/22 09:57:59;;;;;;;5.13;1.30;;;18.70;99.90;;;;;;4826991;29;20394;-81
2022/07/22 10:00:26;;;;;;;7.18;1.60;;;18.80;99.90;;;;;;4842179;29;20057;-81
2022/07/22 10:02:55;;;;;;;2.70;1.40;;;18.90;99.90;;;;;;4826120;29;20143;-81
2022/07/22 10:05:26;;;;;;;7.35;1.50;;;18.90;99.90;;;;;;4843204;29;20077;-80
2022/07/22 10:07:52;;;;;;;4.22;1.30;;;18.70;99.90;;;;;;4811597;29;20098;-81
2022/07/22 10:10:21;;;;;;;5.28;1.40;;;18.80;99.90;;;;;;4825864;29;20061;-81
2022/07/22 10:12:51;;;;;;;4.50;1.35;;;18.80;99.90;;;;;;4810702;29;20897;-81
2022/07/22 10:15:17;;;;;;;3.20;1.33;;;18.80;99.90;;;;;;4809903;29;20471;-80
2022/07/22 10:17:49;;;;;;;8.35;1.55;;;18.70;99.90;;;;;;4825668;29;20132;-80
2022/07/22 10:20:20;;;;;;;2.10;1.25;;;18.80;99.90;;;;;;4826084;29;20048;-79
2022/07/22 10:23:02;;;;;;;1.80;1.30;;;18.90;99.90;;;;;;4811572;29;20054;-80
2022/07/22 10:25:30;;;;;;;2.30;1.30;;;18.90;99.90;;;;;;4826119;29;20041;-81
2022/07/22 10:28:05;;;;;;;5.93;1.60;;;18.70;99.90;;;;;;4826144;29;20100;-80
2022/07/22 10:30:35;;;;;;;2.92;1.35;;;18.70;99.90;;;;;;4840547;29;20050;-81
2022/07/22 10:33:09;;;;;;;5.40;1.85;;;18.70;99.90;;;;;;4828395;29;20134;-82
2022/07/22 10:35:36;;;;;;;3.70;1.42;;;18.70;99.90;;;;;;4830590;29;20125;-84
2022/07/22 10:38:04;;;;;;;4.75;1.40;;;18.80;99.90;;;;;;4844749;29;20087;-83
2022/07/22 10:40:37;;;;;;;2.60;1.30;;;18.80;99.90;;;;;;4830917;29;20065;-86
2022/07/22 10:43:04;;;;;;;4.10;1.47;;;18.80;99.90;;;;;;4830434;29;20098;-80
2022/07/22 10:45:40;;;;;;;3.80;1.63;;;18.80;99.90;;;;;;4828526;29;20081;-78
2022/07/22 10:48:09;;;;;;;1.75;1.30;;;18.80;99.90;;;;;;4821063;29;20050;-83
2022/07/22 10:50:37;;;;;;;4.15;1.40;;;18.60;99.90;;;;;;4829318;29;20062;-83
2022/07/22 10:53:10;;;;;;;2.47;1.30;;;18.60;99.90;;;;;;4861152;29;20054;-81
2022/07/22 10:55:36;;;;;;;2.67;1.17;;;18.50;99.90;;;;;;4839896;29;20050;-81
2022/07/22 10:58:33;;;;;;;2.88;1.20;;;18.70;99.90;;;;;;4812495;29;20177;-80
2022/07/22 11:01:07;;;;;;;5.90;1.50;;;18.70;99.90;;;;;;4824807;29;20058;-81
2022/07/22 11:03:33;;;;;;;;;;;18.50;99.90;;;;;;4839099;29;20045;-81
2022/07/22 11:06:21;;;;;;;2.47;0.98;;;18.60;99.90;;;;;;4825349;29;19931;-82
2022/07/22 11:08:49;;;;;;;3.72;1.23;;;18.50;99.90;;;;;;4839416;29;20058;-81
2022/07/22 11:11:15;;;;;;;5.50;1.20;;;18.60;99.90;;;;;;4825729;29;20125;-80
2022/07/22 11:13:41;;;;;;;2.95;1.00;;;18.60;99.90;;;;;;4825227;29;20106;-81
2022/07/22 11:16:24;;;;;;;3.38;1.30;;;18.70;99.90;;;;;;4824844;29;20046;-81
2022/07/22 11:18:53;;;;;;;3.50;1.20;;;18.70;99.90;;;;;;4825245;29;20053;-82
2022/07/22 11:21:20;;;;;;;4.78;1.27;;;18.80;99.90;;;;;;4842812;29;20072;-81
2022/07/22 11:23:47;;;;;;;5.10;1.23;;;18.80;99.90;;;;;;4826176;29;20042;-80
2022/07/22 11:26:15;;;;;;;1.95;0.90;;;18.90;99.90;;;;;;4809884;29;20125;-81
2022/07/22 11:28:42;;;;;;;3.05;1.00;;;19.00;99.90;;;;;;4845922;29;20103;-80
2022/07/22 11:31:09;;;;;;;2.95;0.93;;;19.10;99.90;;;;;;4830387;29;20482;-81
2022/07/22 11:33:35;;;;;;;3.30;1.30;;;19.00;99.90;;;;;;4814954;29;20041;-82
2022/07/22 11:36:05;;;;;;;2.45;0.90;;;19.10;99.90;;;;;;4814069;29;20042;-81
2022/07/22 11:39:00;;;;;;;1.77;1.02;;;19.20;99.90;;;;;;4831382;29;20046;-81
2022/07/22 11:41:30;;;;;;;3.33;1.02;;;19.20;99.90;;;;;;4827546;29;20506;-82
2022/07/22 11:43:55;;;;;;;2.92;1.00;;;19.10;99.90;;;;;;4846029;29;20042;-81
2022/07/22 11:46:23;;;;;;;4.03;1.05;;;19.00;99.90;;;;;;4846326;29;20113;-81
2022/07/22 11:48:48;;;;;;;2.20;0.85;;;19.30;99.90;;;;;;4798629;29;20475;-82
2022/07/22 11:51:15;;;;;;;3.75;0.90;;;19.30;99.90;;;;;;4809359;29;20038;-82
2022/07/22 11:53:42;;;;;;;2.72;1.13;;;19.30;99.90;;;;;;4827222;29;20053;-84
2022/07/22 11:56:08;;;;;;;1.55;0.90;;;19.50;99.90;;;;;;4812306;29;20054;-82
2022/07/22 11:58:49;;;;;;;1.60;0.80;;;19.50;99.90;;;;;;4831547;29;20482;-81
2022/07/22 12:01:16;;;;;;;2.63;1.30;;;19.70;99.90;;;;;;4808739;29;20079;-80
2022/07/22 12:03:49;;;;;;;4.82;1.10;;;19.80;99.90;;;;;;4824986;29;20038;-87
2022/07/22 12:06:15;;;;;;;2.78;1.00;;;19.90;99.90;;;;;;4850905;29;20049;-81
2022/07/22 12:08:46;;;;;;;1.95;1.00;;;20.10;99.90;;;;;;4849366;29;20207;-82
2022/07/22 12:11:13;;;;;;;2.20;0.88;;;20.10;99.90;;;;;;4831661;29;20046;-81
2022/07/22 12:13:43;;;;;;;2.03;1.05;;;20.10;99.90;;;;;;4815470;29;20479;-80
2022/07/22 12:16:28;;;;;;;2.45;1.20;;;20.20;99.90;;;;;;4834197;29;20057;-83
2022/07/22 12:18:59;;;;;;;2.58;1.10;;;20.10;99.90;;;;;;4831892;29;20049;-83
2022/07/22 12:21:26;;;;;;;3.58;1.42;;;20.10;99.90;;;;;;4846865;29;20041;-82
2022/07/22 12:23:59;;;;;;;2.30;0.95;;;20.00;99.90;;;;;;4843230;29;20046;-82
2022/07/22 12:26:44;;;;;;;3.47;1.10;;;19.90;99.90;;;;;;4816110;29;20045;-83
2022/07/22 12:29:17;;;;;;;1.98;1.00;;;19.70;99.90;;;;;;4844590;29;20053;-83
2022/07/22 12:31:44;;;;;;;4.22;1.00;;;19.70;99.90;;;;;;4832342;29;20037;-83
2022/07/22 12:34:10;;;;;;;2.42;1.05;;;19.60;99.90;;;;;;4831579;29;20109;-82
2022/07/22 12:36:36;;;;;;;1.48;0.95;;;19.40;99.90;;;;;;4830856;29;20077;-82
2022/07/22 12:39:16;;;;;;;4.22;1.10;;;19.40;99.90;;;;;;4829906;29;20046;-82
2022/07/22 12:41:46;;;;;;;1.98;0.95;;;19.30;99.90;;;;;;4828218;29;20125;-82
2022/07/22 12:44:24;;;;;;;2.47;1.00;;;19.30;99.90;;;;;;4813847;29;20050;-83
2022/07/22 12:46:52;;;;;;;2.95;1.00;;;19.20;99.90;;;;;;4813612;29;20110;-83
2022/07/22 12:49:20;;;;;;;2.13;1.20;;;19.30;99.90;;;;;;4829344;29;20102;-82
2022/07/22 12:52:08;;;;;;;2.95;1.20;;;19.30;99.90;;;;;;4829323;29;20055;-84
2022/07/22 12:54:34;;;;;;;2.92;1.30;;;19.40;99.90;;;;;;4815626;29;20106;-82
2022/07/22 12:57:00;;;;;;;2.35;1.27;;;19.40;99.90;;;;;;4799246;29;20045;-82
2022/07/22 12:59:26;;;;;;;2.75;1.10;;;19.40;99.90;;;;;;4828901;29;20042;-81
2022/07/22 13:01:52;;;;;;;2.75;1.30;;;19.40;99.90;;;;;;4828814;29;20065;-81
2022/07/22 13:04:17;;;;;;;2.03;1.20;;;19.20;99.90;;;;;;4828457;29;20132;-84